createdAt,value
2019-03-22T00:00:10.371Z,5.82
2019-03-22T00:02:41.614Z,5.81
2019-03-22T00:05:12.877Z,5.85
2019-03-22T00:07:44.145Z,5.79
2019-03-22T00:10:15.354Z,5.79
2019-03-22T00:12:46.596Z,5.74
2019-03-22T00:15:17.690Z,5.80
2019-03-22T00:17:48.934Z,5.86
2019-03-22T00:20:20.169Z,5.89
2019-03-22T00:22:51.425Z,5.89
2019-03-22T00:25:22.581Z,5.90
2019-03-22T00:27:53.809Z,5.87
2019-03-22T00:30:24.952Z,5.91
2019-03-22T00:32:56.275Z,5.82
2019-03-22T00:35:27.517Z,5.81
2019-03-22T00:37:58.748Z,5.81
2019-03-22T00:40:30.185Z,5.82
2019-03-22T00:43:01.454Z,5.74
2019-03-22T00:45:32.705Z,5.73
2019-03-22T00:48:03.997Z,5.73
2019-03-22T00:50:35.194Z,5.70
2019-03-22T00:53:06.378Z,5.69
2019-03-22T00:55:37.567Z,5.64
2019-03-22T00:58:08.800Z,5.65
2019-03-22T01:00:40.012Z,5.73
2019-03-22T01:03:11.265Z,5.70
2019-03-22T01:05:42.578Z,5.68
2019-03-22T01:08:13.766Z,5.73
2019-03-22T01:10:44.962Z,5.71
2019-03-22T01:13:16.098Z,5.67
2019-03-22T01:15:47.321Z,5.63
2019-03-22T01:18:18.586Z,5.56
2019-03-22T01:20:49.849Z,5.51
2019-03-22T01:23:21.081Z,5.52
2019-03-22T01:25:52.310Z,5.48
2019-03-22T01:28:23.501Z,5.40
2019-03-22T01:30:54.677Z,5.33
2019-03-22T01:33:26.022Z,5.31
2019-03-22T01:35:57.257Z,5.32
2019-03-22T01:38:28.411Z,5.28
2019-03-22T01:40:59.753Z,5.26
2019-03-22T01:43:30.887Z,5.26
2019-03-22T01:46:02.159Z,5.32
2019-03-22T01:48:33.275Z,5.28
2019-03-22T01:51:04.523Z,5.26
2019-03-22T01:53:35.799Z,5.16
2019-03-22T01:56:07.307Z,5.20
2019-03-22T01:58:38.480Z,5.32
2019-03-22T02:01:09.559Z,5.28
2019-03-22T02:03:40.781Z,5.27
2019-03-22T02:06:11.977Z,5.28
2019-03-22T02:08:43.184Z,5.21
2019-03-22T02:11:14.475Z,5.16
2019-03-22T02:13:45.667Z,5.17
2019-03-22T02:16:16.892Z,5.18
2019-03-22T02:18:48.144Z,5.18
2019-03-22T02:21:19.394Z,5.14
2019-03-22T02:23:52.159Z,5.20
2019-03-22T02:26:23.633Z,5.14
2019-03-22T02:28:54.840Z,5.18
2019-03-22T02:31:26.041Z,5.22
2019-03-22T02:33:57.295Z,5.30
2019-03-22T02:36:28.524Z,5.25
2019-03-22T02:38:59.870Z,5.16
2019-03-22T02:41:31.146Z,5.13
2019-03-22T02:44:02.373Z,5.14
2019-03-22T02:46:33.651Z,5.18
2019-03-22T02:49:04.879Z,5.29
2019-03-22T02:51:36.122Z,5.20
2019-03-22T02:54:07.444Z,5.11
2019-03-22T02:56:38.695Z,5.14
2019-03-22T02:59:09.883Z,5.16
2019-03-22T03:01:41.119Z,5.19
2019-03-22T03:04:12.448Z,5.16
2019-03-22T03:06:43.594Z,5.06
2019-03-22T03:09:14.867Z,5.07
2019-03-22T03:11:46.125Z,5.06
2019-03-22T03:14:17.256Z,5.02
2019-03-22T03:16:48.494Z,4.96
2019-03-22T03:19:19.694Z,4.96
2019-03-22T03:21:50.947Z,4.87
2019-03-22T03:24:22.171Z,4.87
2019-03-22T03:26:53.372Z,4.91
2019-03-22T03:29:24.759Z,4.87
2019-03-22T03:31:56.047Z,4.92
2019-03-22T03:34:27.207Z,4.89
2019-03-22T03:36:58.393Z,4.90
2019-03-22T03:39:29.607Z,4.93
2019-03-22T03:42:00.850Z,4.89
2019-03-22T03:44:31.999Z,4.84
2019-03-22T03:47:03.302Z,4.89
2019-03-22T03:49:34.504Z,4.91
2019-03-22T03:52:05.702Z,4.88
2019-03-22T03:54:36.881Z,4.81
2019-03-22T03:57:08.231Z,4.75
2019-03-22T03:59:39.461Z,4.76
2019-03-22T04:02:10.609Z,4.68
2019-03-22T04:04:41.892Z,4.63
2019-03-22T04:07:13.157Z,4.61
2019-03-22T04:09:44.348Z,4.53
2019-03-22T04:12:15.494Z,4.47
2019-03-22T04:14:46.773Z,4.40
2019-03-22T04:17:17.908Z,4.35
2019-03-22T04:19:49.178Z,4.28
2019-03-22T04:22:20.524Z,4.27
2019-03-22T04:24:51.764Z,4.21
2019-03-22T04:27:23.036Z,4.16
2019-03-22T04:29:54.426Z,4.09
2019-03-22T04:32:25.776Z,4.07
2019-03-22T04:34:57.067Z,4.04
2019-03-22T04:37:29.079Z,3.99
2019-03-22T04:40:00.433Z,3.97
2019-03-22T04:42:31.816Z,3.96
2019-03-22T04:45:03.073Z,3.96
2019-03-22T04:47:34.353Z,3.93
2019-03-22T04:50:06.413Z,3.89
2019-03-22T04:52:37.828Z,3.86
2019-03-22T04:55:09.071Z,3.85
2019-03-22T04:57:40.791Z,3.79
2019-03-22T05:00:12.710Z,3.73
2019-03-22T05:02:46.651Z,3.65
2019-03-22T05:05:18.307Z,3.55
2019-03-22T05:07:50.697Z,3.45
2019-03-22T05:10:22.492Z,3.33
2019-03-22T05:12:55.383Z,3.20
2019-03-22T05:15:27.035Z,3.14
2019-03-22T05:17:58.317Z,3.05
2019-03-22T05:20:30.233Z,3.00
2019-03-22T05:23:02.517Z,2.91
2019-03-22T05:25:35.470Z,2.82
2019-03-22T05:28:08.562Z,2.80
2019-03-22T05:31:27.617Z,2.68
2019-03-22T05:33:58.881Z,2.64
2019-03-22T05:36:30.153Z,2.70
2019-03-22T05:39:01.380Z,2.61
2019-03-22T05:41:32.660Z,2.65
2019-03-22T05:44:03.866Z,2.63
2019-03-22T05:46:35.169Z,2.60
2019-03-22T05:49:06.365Z,2.71
2019-03-22T05:51:37.734Z,2.73
2019-03-22T05:54:09.022Z,2.76
2019-03-22T05:56:40.270Z,2.81
2019-03-22T05:59:11.553Z,2.93
2019-03-22T06:01:45.201Z,2.97
2019-03-22T06:04:15.771Z,3.02
2019-03-22T06:06:47.155Z,3.11
2019-03-22T06:09:18.368Z,3.14
2019-03-22T06:11:49.635Z,3.18
2019-03-22T06:14:20.851Z,3.28
2019-03-22T06:16:51.967Z,3.36
2019-03-22T06:19:23.225Z,3.41
2019-03-22T06:21:54.622Z,3.50
2019-03-22T06:24:25.992Z,3.62
2019-03-22T06:26:57.441Z,3.74
2019-03-22T06:29:28.687Z,3.89
2019-03-22T06:31:59.916Z,4.11
2019-03-22T06:34:31.233Z,4.31
2019-03-22T06:37:02.659Z,4.50
2019-03-22T06:39:33.981Z,4.70
2019-03-22T06:42:05.268Z,4.84
2019-03-22T06:44:36.631Z,5.01
2019-03-22T06:47:07.999Z,5.15
2019-03-22T06:49:39.295Z,5.31
2019-03-22T06:52:10.523Z,5.47
2019-03-22T06:54:41.889Z,5.64
2019-03-22T06:57:13.192Z,5.88
2019-03-22T06:59:44.472Z,6.11
2019-03-22T07:02:15.807Z,6.39
2019-03-22T07:04:47.034Z,6.74
2019-03-22T07:07:18.310Z,7.09
2019-03-22T07:09:49.657Z,7.56
2019-03-22T07:12:20.984Z,7.97
2019-03-22T07:14:52.359Z,8.46
2019-03-22T07:17:23.561Z,8.89
2019-03-22T07:19:54.886Z,9.12
2019-03-22T07:22:26.127Z,9.56
2019-03-22T07:24:57.368Z,9.93
2019-03-22T07:27:28.690Z,10.31
2019-03-22T07:29:59.948Z,10.43
2019-03-22T07:32:31.314Z,10.96
2019-03-22T07:35:02.615Z,10.98
2019-03-22T07:37:33.868Z,11.25
2019-03-22T07:40:06.152Z,11.45
2019-03-22T07:42:37.469Z,11.56
2019-03-22T07:45:09.266Z,11.59
2019-03-22T07:47:40.613Z,12.01
2019-03-22T07:50:12.781Z,11.92
2019-03-22T07:52:44.026Z,11.98
2019-03-22T07:55:15.358Z,12.10
2019-03-22T07:57:46.643Z,12.55
2019-03-22T08:00:29.878Z,12.91
2019-03-22T08:02:50.915Z,13.37
2019-03-22T08:05:22.152Z,13.75
2019-03-22T08:07:56.008Z,13.91
2019-03-22T08:10:26.428Z,13.74
2019-03-22T08:12:57.724Z,14.13
2019-03-22T08:15:32.083Z,14.25
2019-03-22T08:18:03.628Z,14.50
2019-03-22T08:20:34.977Z,14.68
2019-03-22T08:23:22.673Z,13.95
2019-03-22T08:25:54.016Z,14.50
2019-03-22T08:28:25.378Z,14.84
2019-03-22T08:30:56.736Z,15.40
2019-03-22T08:33:27.954Z,15.60
2019-03-22T08:35:59.182Z,16.27
2019-03-22T08:38:30.568Z,16.41
2019-03-22T08:41:01.735Z,17.05
2019-03-22T08:43:32.989Z,16.95
2019-03-22T08:46:04.269Z,17.11
2019-03-22T08:48:35.501Z,16.66
2019-03-22T08:51:06.794Z,16.99
2019-03-22T08:53:38.027Z,16.49
2019-03-22T08:56:09.237Z,16.53
2019-03-22T08:58:40.515Z,16.64
2019-03-22T09:01:12.095Z,17.27
2019-03-22T09:03:43.397Z,16.94
2019-03-22T09:06:14.602Z,17.38
2019-03-22T09:08:47.874Z,18.09
2019-03-22T09:11:18.767Z,18.05
2019-03-22T09:13:50.034Z,18.45
2019-03-22T09:16:21.296Z,18.73
2019-03-22T09:18:52.586Z,18.42
2019-03-22T09:21:23.860Z,18.36
2019-03-22T09:23:55.001Z,18.02
2019-03-22T09:26:26.318Z,19.17
2019-03-22T09:28:57.602Z,19.16
2019-03-22T09:31:28.718Z,19.22
2019-03-22T09:33:59.975Z,19.55
2019-03-22T09:36:31.163Z,19.58
2019-03-22T09:39:02.458Z,19.26
2019-03-22T09:41:33.737Z,19.55
2019-03-22T09:44:04.974Z,19.48
2019-03-22T09:46:36.182Z,19.81
2019-03-22T09:49:07.517Z,19.27
2019-03-22T09:51:38.864Z,19.36
2019-03-22T09:54:10.158Z,19.63
2019-03-22T09:56:46.952Z,19.76
2019-03-22T09:59:14.432Z,20.52
2019-03-22T10:01:45.599Z,20.20
2019-03-22T10:04:16.872Z,20.40
2019-03-22T10:06:48.083Z,19.95
2019-03-22T10:09:19.316Z,20.48
2019-03-22T10:11:50.628Z,21.17
2019-03-22T10:14:21.918Z,21.54
2019-03-22T10:16:53.184Z,21.12
2019-03-22T10:19:24.333Z,21.58
2019-03-22T10:21:55.657Z,21.53
2019-03-22T10:24:26.898Z,21.52
2019-03-22T10:26:58.148Z,20.69
2019-03-22T10:29:29.428Z,20.99
2019-03-22T10:32:00.593Z,20.57
2019-03-22T10:34:31.753Z,21.23
2019-03-22T10:37:03.011Z,21.84
2019-03-22T10:39:34.263Z,22.69
2019-03-22T10:42:05.622Z,22.99
2019-03-22T10:44:39.270Z,21.90
2019-03-22T10:47:09.845Z,22.29
2019-03-22T10:49:42.090Z,22.22
2019-03-22T10:52:13.815Z,21.63
2019-03-22T10:54:45.100Z,21.32
2019-03-22T10:57:16.421Z,21.02
2019-03-22T10:59:47.639Z,20.55
2019-03-22T11:02:18.958Z,20.28
2019-03-22T11:04:50.225Z,20.67
2019-03-22T11:07:21.431Z,20.28
2019-03-22T11:09:52.775Z,19.94
2019-03-22T11:12:24.017Z,19.83
2019-03-22T11:14:55.091Z,20.12
2019-03-22T11:17:26.335Z,20.66
2019-03-22T11:19:57.678Z,20.84
2019-03-22T11:22:28.876Z,21.17
2019-03-22T11:25:00.289Z,21.36
2019-03-22T11:27:31.878Z,20.97
2019-03-22T11:30:03.075Z,21.63
2019-03-22T11:32:34.311Z,21.76
2019-03-22T11:35:06.478Z,22.10
2019-03-22T11:37:37.783Z,21.79
2019-03-22T11:40:11.491Z,21.45
2019-03-22T11:42:42.668Z,21.60
2019-03-22T11:45:17.997Z,22.07
2019-03-22T11:47:49.311Z,22.43
2019-03-22T11:50:20.587Z,22.73
2019-03-22T11:52:51.868Z,22.32
2019-03-22T11:55:23.080Z,22.98
2019-03-22T11:57:54.296Z,23.43
2019-03-22T12:00:26.685Z,24.25
2019-03-22T12:02:57.898Z,24.44
2019-03-22T12:05:29.155Z,25.37
2019-03-22T12:08:00.545Z,23.94
2019-03-22T12:10:31.931Z,25.04
2019-03-22T12:13:03.069Z,25.82
2019-03-22T12:15:34.477Z,25.92
2019-03-22T12:18:05.978Z,26.04
2019-03-22T12:20:37.373Z,24.74
2019-03-22T12:23:08.638Z,24.83
2019-03-22T12:25:41.518Z,25.21
2019-03-22T12:28:12.895Z,25.19
2019-03-22T12:30:44.202Z,25.32
2019-03-22T12:33:15.544Z,25.36
2019-03-22T12:35:46.856Z,24.79
2019-03-22T12:38:18.121Z,23.76
2019-03-22T12:40:49.468Z,21.91
2019-03-22T12:43:20.619Z,23.18
2019-03-22T12:45:51.877Z,23.89
2019-03-22T12:48:23.167Z,22.37
2019-03-22T12:50:54.344Z,23.80
2019-03-22T12:53:25.588Z,24.17
2019-03-22T12:55:56.896Z,23.47
2019-03-22T12:58:28.216Z,23.72
2019-03-22T13:00:59.430Z,23.58
2019-03-22T13:03:30.700Z,23.75
2019-03-22T13:06:01.913Z,23.85
2019-03-22T13:08:33.892Z,24.29
2019-03-22T13:11:05.213Z,23.33
2019-03-22T13:13:36.541Z,23.75
2019-03-22T13:16:07.727Z,23.88
2019-03-22T13:18:38.876Z,24.40
2019-03-22T13:21:10.077Z,24.33
2019-03-22T13:23:41.365Z,23.60
2019-03-22T13:26:12.601Z,23.78
2019-03-22T13:28:43.856Z,23.60
2019-03-22T13:31:15.169Z,22.87
2019-03-22T13:33:46.429Z,22.64
2019-03-22T13:36:17.639Z,21.68
2019-03-22T13:38:48.907Z,21.16
2019-03-22T13:41:20.133Z,21.31
2019-03-22T13:43:51.420Z,21.51
2019-03-22T13:46:22.692Z,21.35
2019-03-22T13:48:53.956Z,21.07
2019-03-22T13:51:25.186Z,20.72
2019-03-22T13:53:56.521Z,20.22
2019-03-22T13:56:27.820Z,19.86
2019-03-22T13:58:59.219Z,19.86
2019-03-22T14:01:30.521Z,19.78
2019-03-22T14:04:01.740Z,19.45
2019-03-22T14:06:33.106Z,19.46
2019-03-22T14:09:05.795Z,19.47
2019-03-22T14:11:37.087Z,19.68
2019-03-22T14:14:08.362Z,19.97
2019-03-22T14:16:39.790Z,19.70
2019-03-22T14:19:11.083Z,19.57
2019-03-22T14:21:42.372Z,19.43
2019-03-22T14:24:13.643Z,19.46
2019-03-22T14:26:44.857Z,19.18
2019-03-22T14:29:16.128Z,19.02
2019-03-22T14:31:47.364Z,18.90
2019-03-22T14:34:18.705Z,18.94
2019-03-22T14:36:50.002Z,19.29
2019-03-22T14:39:21.190Z,19.76
2019-03-22T14:41:52.602Z,19.85
2019-03-22T14:44:25.486Z,19.99
2019-03-22T14:46:57.007Z,20.14
2019-03-22T14:49:28.270Z,20.95
2019-03-22T14:51:59.618Z,21.79
2019-03-22T14:54:30.795Z,22.30
2019-03-22T14:57:02.136Z,22.36
2019-03-22T14:59:33.385Z,21.97
2019-03-22T15:02:04.723Z,21.87
2019-03-22T15:04:35.901Z,21.38
2019-03-22T15:07:07.183Z,20.62
2019-03-22T15:09:38.459Z,20.57
2019-03-22T15:12:09.793Z,20.32
2019-03-22T15:14:52.007Z,19.96
2019-03-22T15:17:48.197Z,19.34
2019-03-22T15:20:44.268Z,18.88
2019-03-22T15:23:44.107Z,18.54
2019-03-22T15:26:29.799Z,18.21
2019-03-22T15:29:29.198Z,17.83
2019-03-22T15:32:12.932Z,17.56
2019-03-22T15:35:01.903Z,17.15
2019-03-22T15:37:57.506Z,16.83
2019-03-22T15:40:28.804Z,16.76
2019-03-22T15:43:00.036Z,16.69
2019-03-22T15:45:32.948Z,16.60
2019-03-22T15:48:04.119Z,16.50
2019-03-22T15:50:35.491Z,16.43
2019-03-22T15:53:06.661Z,16.30
2019-03-22T15:55:37.909Z,16.27
2019-03-22T15:58:09.172Z,16.21
2019-03-22T16:00:40.368Z,16.20
2019-03-22T16:03:11.539Z,16.18
2019-03-22T16:05:42.727Z,16.04
2019-03-22T16:08:17.792Z,15.95
2019-03-22T16:10:49.239Z,15.81
2019-03-22T16:13:20.633Z,15.77
2019-03-22T16:15:51.783Z,15.77
2019-03-22T16:18:23.051Z,15.84
2019-03-22T16:20:59.950Z,15.94
2019-03-22T16:23:27.269Z,15.95
2019-03-22T16:25:58.730Z,15.85
2019-03-22T16:28:29.993Z,15.77
2019-03-22T16:31:01.267Z,15.69
2019-03-22T16:33:34.105Z,15.61
2019-03-22T16:36:05.509Z,15.55
2019-03-22T16:38:36.737Z,15.45
2019-03-22T16:41:08.001Z,15.34
2019-03-22T16:43:39.231Z,15.23
2019-03-22T16:46:10.527Z,15.05
2019-03-22T16:48:41.850Z,14.98
2019-03-22T16:51:13.144Z,14.95
2019-03-22T16:53:44.461Z,14.95
2019-03-22T16:56:15.755Z,14.90
2019-03-22T16:58:47.042Z,14.78
2019-03-22T17:01:18.320Z,14.69
2019-03-22T17:03:49.655Z,14.53
2019-03-22T17:06:20.950Z,14.38
2019-03-22T17:08:52.156Z,14.23
2019-03-22T17:11:23.415Z,14.11
2019-03-22T17:13:54.683Z,13.95
2019-03-22T17:16:25.990Z,13.84
2019-03-22T17:18:59.459Z,13.79
2019-03-22T17:21:30.737Z,13.61
2019-03-22T17:24:02.051Z,13.52
2019-03-22T17:26:33.401Z,13.33
2019-03-22T17:29:04.613Z,13.27
2019-03-22T17:31:36.007Z,13.16
2019-03-22T17:34:14.230Z,13.05
2019-03-22T17:36:40.192Z,12.91
2019-03-22T17:39:11.440Z,12.76
2019-03-22T17:41:42.866Z,12.60
2019-03-22T17:44:14.162Z,12.39
2019-03-22T17:46:45.411Z,12.11
2019-03-22T17:49:16.666Z,11.85
2019-03-22T17:51:47.953Z,11.65
2019-03-22T17:54:19.081Z,11.43
2019-03-22T17:56:50.372Z,11.25
2019-03-22T17:59:21.691Z,11.05
2019-03-22T18:01:53.041Z,10.84
2019-03-22T18:04:24.570Z,10.72
2019-03-22T18:06:55.891Z,10.56
2019-03-22T18:09:27.109Z,10.43
2019-03-22T18:11:58.366Z,10.35
2019-03-22T18:14:29.617Z,10.27
2019-03-22T18:17:00.952Z,10.13
2019-03-22T18:19:32.183Z,10.02
2019-03-22T18:22:03.400Z,9.97
2019-03-22T18:24:34.631Z,9.89
2019-03-22T18:27:05.949Z,9.80
2019-03-22T18:29:37.243Z,9.70
2019-03-22T18:32:08.501Z,9.68
2019-03-22T18:34:40.902Z,9.50
2019-03-22T18:37:12.141Z,9.33
2019-03-22T18:39:43.382Z,9.22
2019-03-22T18:42:14.621Z,9.13
2019-03-22T18:44:45.770Z,9.08
2019-03-22T18:47:17.047Z,9.00
2019-03-22T18:49:48.163Z,9.04
2019-03-22T18:52:19.471Z,9.08
2019-03-22T18:54:50.745Z,8.91
2019-03-22T18:57:21.906Z,8.75
2019-03-22T18:59:53.181Z,8.73
2019-03-22T19:02:24.335Z,8.68
2019-03-22T19:04:55.539Z,8.62
2019-03-22T19:07:26.789Z,8.44
2019-03-22T19:09:58.048Z,8.37
2019-03-22T19:12:29.330Z,8.51
2019-03-22T19:15:00.725Z,8.52
2019-03-22T19:17:32.056Z,8.49
2019-03-22T19:20:03.355Z,8.51
2019-03-22T19:22:34.530Z,8.50
2019-03-22T19:25:06.140Z,8.37
2019-03-22T19:27:37.464Z,8.37
2019-03-22T19:30:09.984Z,8.36
2019-03-22T19:32:41.222Z,8.37
2019-03-22T19:35:12.780Z,8.32
2019-03-22T19:37:44.050Z,8.26
2019-03-22T19:40:16.316Z,8.20
2019-03-22T19:42:47.544Z,8.20
2019-03-22T19:45:19.175Z,8.08
2019-03-22T19:47:50.486Z,8.05
2019-03-22T19:50:21.720Z,7.96
2019-03-22T19:52:52.834Z,7.95
2019-03-22T19:55:24.075Z,7.81
2019-03-22T19:57:55.378Z,7.77
2019-03-22T20:00:26.624Z,7.76
2019-03-22T20:02:57.851Z,7.71
2019-03-22T20:05:31.574Z,7.75
2019-03-22T20:08:03.229Z,7.84
2019-03-22T20:10:34.450Z,7.98
2019-03-22T20:13:05.650Z,7.99
2019-03-22T20:15:36.861Z,7.99
2019-03-22T20:18:08.112Z,7.86
2019-03-22T20:20:39.422Z,7.80
2019-03-22T20:23:10.627Z,7.80
2019-03-22T20:25:42.742Z,7.55
2019-03-22T20:28:14.033Z,7.46
2019-03-22T20:30:45.243Z,7.45
2019-03-22T20:33:16.480Z,7.34
2019-03-22T20:35:47.786Z,7.15
2019-03-22T20:38:18.971Z,7.12
2019-03-22T20:40:50.175Z,7.16
2019-03-22T20:43:21.495Z,7.12
2019-03-22T20:45:52.656Z,7.21
2019-03-22T20:48:25.947Z,7.38
2019-03-22T20:50:57.408Z,7.50
2019-03-22T20:53:28.570Z,7.52
2019-03-22T20:55:59.867Z,7.56
2019-03-22T20:58:31.128Z,7.38
2019-03-22T21:01:02.278Z,7.35
2019-03-22T21:03:33.463Z,7.31
2019-03-22T21:06:04.773Z,7.07
2019-03-22T21:08:36.018Z,6.99
2019-03-22T21:11:07.339Z,6.97
2019-03-22T21:13:38.617Z,7.03
2019-03-22T21:16:09.862Z,6.91
2019-03-22T21:18:41.040Z,6.77
2019-03-22T21:21:12.220Z,6.83
2019-03-22T21:23:43.555Z,6.96
2019-03-22T21:26:14.886Z,7.01
2019-03-22T21:28:46.209Z,6.99
2019-03-22T21:31:17.687Z,7.00
2019-03-22T21:33:48.952Z,7.03
2019-03-22T21:36:20.149Z,7.03
2019-03-22T21:38:51.375Z,7.02
2019-03-22T21:41:22.589Z,6.99
2019-03-22T21:43:53.846Z,6.99
2019-03-22T21:46:25.025Z,7.02
2019-03-22T21:48:56.230Z,7.04
2019-03-22T21:51:27.451Z,6.98
2019-03-22T21:53:58.721Z,6.95
2019-03-22T21:56:30.178Z,6.89
2019-03-22T21:59:01.447Z,6.86
2019-03-22T22:01:32.729Z,6.73
2019-03-22T22:04:03.954Z,6.60
2019-03-22T22:06:35.190Z,6.50
2019-03-22T22:09:07.807Z,6.18
2019-03-22T22:11:39.145Z,6.14
2019-03-22T22:14:10.383Z,6.08
2019-03-22T22:16:41.578Z,6.10
2019-03-22T22:19:12.842Z,5.90
2019-03-22T22:21:44.079Z,5.93
2019-03-22T22:24:15.319Z,5.99
2019-03-22T22:26:46.670Z,6.03
2019-03-22T22:29:17.994Z,6.14
2019-03-22T22:31:49.169Z,6.15
2019-03-22T22:34:20.332Z,6.13
2019-03-22T22:36:51.574Z,6.14
2019-03-22T22:39:22.793Z,6.18
2019-03-22T22:41:54.060Z,6.22
2019-03-22T22:44:25.286Z,6.03
2019-03-22T22:46:56.567Z,5.79
2019-03-22T22:49:27.661Z,5.71
2019-03-22T22:51:59.014Z,5.73
2019-03-22T22:54:30.176Z,5.73
2019-03-22T22:57:01.433Z,5.72
2019-03-22T22:59:32.660Z,5.70
2019-03-22T23:02:03.975Z,5.68
2019-03-22T23:04:35.185Z,5.60
2019-03-22T23:07:06.508Z,5.55
2019-03-22T23:09:37.803Z,5.58
2019-03-22T23:12:09.041Z,5.57
2019-03-22T23:14:40.438Z,5.55
2019-03-22T23:17:11.675Z,5.53
2019-03-22T23:19:42.986Z,5.42
2019-03-22T23:22:14.067Z,5.37
2019-03-22T23:24:45.272Z,5.31
2019-03-22T23:27:16.508Z,5.04
2019-03-22T23:29:47.768Z,4.89
2019-03-22T23:32:18.973Z,4.77
2019-03-22T23:34:58.708Z,4.72
2019-03-22T23:37:23.232Z,4.79
2019-03-22T23:39:54.452Z,4.80
2019-03-22T23:42:25.693Z,4.90
2019-03-22T23:44:57.003Z,4.91
2019-03-22T23:47:28.343Z,4.95
2019-03-22T23:49:59.546Z,4.86
2019-03-22T23:52:30.709Z,4.31
2019-03-22T23:55:02.115Z,4.42
2019-03-22T23:57:33.417Z,4.30
